Terminal Aerodrome Forecast
Issued by NWS Albany, NY

Home | Current Version | Previous Version | Text Only | Print | Product List | Glossary On
Versions: 1 2 3 4 5 6 7 8 9 10 11 12 13 14 15 16 17 18 19 20 21 22 23 24 25 26 27
000
FTUS41 KALY 200421 AAA
TAFALB
TAF AMD
KALB 200421Z 2004/2024 29012G24KT P6SM VCSH OVC035
      TEMPO 2004/2006 3/4SM -SN BKN015
     FM201300 28014G28KT P6SM VCSH BKN050
     FM202200 26009KT P6SM BKN040=

USA.gov is the U.S. government's official web portal to all federal, state and local government web resources and services.